Manavgat, Turkey
Current Conditions -  °F | °C
As of 7:50 AM on Tuesday 21 Oct 2014 (Local Time) from LTAI Reporting Station
Clear Clear  
Wind Chill: 57°   Ceiling: Unl
Heat Index: 57°   Visibility: 6mi
Dew Point: 19°   Wind: 12mph
Humidity: 23%   Direction: 350°N
Pressure: 29.94"   Gusts: NA
Location:  36.79°N, 31.46°E
Report Text: LTAI 210450Z 35010KT CAVOK 14/M07 Q1014 NOSIG
Loading
Personal Weather Stations






























Interactive Weather Map
Tropical Storm Tracking
New forecast layout! Learn more

10-Day Weather Forecast

Advertisements
Track Severe Weather on mobile